createdAt,value
2018-11-13T00:00:07.845Z,0
2018-11-13T00:01:07.593Z,0
2018-11-13T00:02:07.830Z,0
2018-11-13T00:03:07.834Z,0
2018-11-13T00:04:08.061Z,0
2018-11-13T00:05:07.581Z,0
2018-11-13T00:06:07.570Z,0
2018-11-13T00:07:07.593Z,0
2018-11-13T00:08:07.819Z,0
2018-11-13T00:09:07.542Z,0
2018-11-13T00:10:07.566Z,0
2018-11-13T00:11:07.546Z,0
2018-11-13T00:12:08.084Z,0
2018-11-13T00:13:07.799Z,0
2018-11-13T00:14:07.268Z,0
2018-11-13T00:15:07.591Z,0
2018-11-13T00:16:07.544Z,0
2018-11-13T00:17:07.281Z,0
2018-11-13T00:18:07.544Z,0
2018-11-13T00:19:07.785Z,0
2018-11-13T00:20:07.797Z,0
2018-11-13T00:21:07.277Z,0
2018-11-13T00:22:07.776Z,0
2018-11-13T00:23:07.548Z,0
2018-11-13T00:24:08.658Z,0
2018-11-13T00:25:07.776Z,0
2018-11-13T00:26:07.536Z,0
2018-11-13T00:27:07.762Z,0
2018-11-13T00:28:08.032Z,0
2018-11-13T00:29:07.754Z,0
2018-11-13T00:30:07.775Z,0
2018-11-13T00:31:07.286Z,0
2018-11-13T00:32:07.752Z,0
2018-11-13T00:33:07.541Z,0
2018-11-13T00:34:08.008Z,0
2018-11-13T00:35:07.268Z,0
2018-11-13T00:36:07.231Z,0
2018-11-13T00:37:07.235Z,0
2018-11-13T00:38:07.983Z,0
2018-11-13T00:39:07.283Z,0
2018-11-13T00:40:07.495Z,0
2018-11-13T00:41:07.752Z,0
2018-11-13T00:42:08.234Z,0
2018-11-13T00:43:07.211Z,0
2018-11-13T00:44:07.491Z,0
2018-11-13T00:45:07.459Z,0
2018-11-13T00:46:07.764Z,0
2018-11-13T00:47:07.510Z,0
2018-11-13T00:48:08.245Z,0
2018-11-13T00:49:08.251Z,0
2018-11-13T00:50:07.445Z,0
2018-11-13T00:51:08.147Z,0
2018-11-13T00:52:07.178Z,0
2018-11-13T00:53:07.699Z,0
2018-11-13T00:54:07.179Z,0
2018-11-13T00:55:07.844Z,0
2018-11-13T00:56:07.693Z,0
2018-11-13T00:57:07.671Z,0
2018-11-13T00:58:07.423Z,0
2018-11-13T00:59:06.889Z,0
2018-11-13T01:00:07.761Z,0
2018-11-13T01:01:07.934Z,0
2018-11-13T01:02:08.814Z,0
2018-11-13T01:03:07.640Z,0
2018-11-13T01:04:07.134Z,0
2018-11-13T01:05:07.675Z,0
2018-11-13T01:06:07.948Z,0
2018-11-13T01:07:07.122Z,0
2018-11-13T01:08:07.115Z,0
2018-11-13T01:09:07.145Z,0
2018-11-13T01:10:07.423Z,0
2018-11-13T01:11:07.648Z,0
2018-11-13T01:12:08.184Z,0
2018-11-13T01:13:07.401Z,0
2018-11-13T01:14:07.122Z,0
2018-11-13T01:15:08.280Z,0
2018-11-13T01:16:07.627Z,0
2018-11-13T01:17:07.359Z,0
2018-11-13T01:18:08.518Z,0
2018-11-13T01:19:07.380Z,0
2018-11-13T01:20:07.668Z,0
2018-11-13T01:21:07.386Z,0
2018-11-13T01:22:07.367Z,0
2018-11-13T01:23:07.878Z,0
2018-11-13T01:24:08.755Z,0
2018-11-13T01:25:07.685Z,0
2018-11-13T01:26:07.109Z,0
2018-11-13T01:27:07.857Z,0
2018-11-13T01:28:07.690Z,0
2018-11-13T01:29:07.854Z,0
2018-11-13T01:30:07.343Z,0
2018-11-13T01:31:07.888Z,0
2018-11-13T01:32:07.852Z,0
2018-11-13T01:33:07.601Z,0
2018-11-13T01:34:07.569Z,0
2018-11-13T01:35:07.815Z,0
2018-11-13T01:36:07.572Z,0
2018-11-13T01:37:07.293Z,0
2018-11-13T01:38:07.546Z,0
2018-11-13T01:39:07.827Z,0
2018-11-13T01:40:06.808Z,0
2018-11-13T01:41:07.356Z,0
2018-11-13T01:42:07.030Z,0
2018-11-13T01:43:07.291Z,0
2018-11-13T01:44:07.785Z,0
2018-11-13T01:45:07.282Z,0
2018-11-13T01:46:07.040Z,0
2018-11-13T01:47:07.771Z,0
2018-11-13T01:48:08.454Z,0
2018-11-13T01:49:07.802Z,0
2018-11-13T01:50:07.045Z,0
2018-11-13T01:51:07.519Z,0
2018-11-13T01:52:07.026Z,0
2018-11-13T01:53:07.246Z,0
2018-11-13T01:54:08.074Z,0
2018-11-13T01:55:07.249Z,0
2018-11-13T01:56:06.971Z,0
2018-11-13T01:57:07.466Z,0
2018-11-13T01:58:06.982Z,0
2018-11-13T01:59:07.028Z,0
2018-11-13T02:00:06.990Z,0
2018-11-13T02:01:07.248Z,0
2018-11-13T02:02:06.972Z,0
2018-11-13T02:03:07.471Z,0
2018-11-13T02:04:07.508Z,0
2018-11-13T02:05:07.488Z,0
2018-11-13T02:06:06.702Z,0
2018-11-13T02:07:07.739Z,0
2018-11-13T02:08:07.471Z,0
2018-11-13T02:09:06.689Z,0
2018-11-13T02:10:07.497Z,0
2018-11-13T02:11:07.200Z,0
2018-11-13T02:12:07.756Z,0
2018-11-13T02:13:06.689Z,0
2018-11-13T02:14:07.441Z,0
2018-11-13T02:15:07.188Z,0
2018-11-13T02:16:07.458Z,0
2018-11-13T02:17:07.171Z,0
2018-11-13T02:18:07.432Z,0
2018-11-13T02:19:07.157Z,0
2018-11-13T02:20:07.707Z,0
2018-11-13T02:21:07.417Z,0
2018-11-13T02:22:07.438Z,0
2018-11-13T02:23:07.171Z,0
2018-11-13T02:24:07.438Z,0
2018-11-13T02:25:07.453Z,0
2018-11-13T02:26:07.170Z,0
2018-11-13T02:27:07.423Z,0
2018-11-13T02:28:07.139Z,0
2018-11-13T02:29:07.937Z,0
2018-11-13T02:30:07.707Z,0
2018-11-13T02:31:07.685Z,0
2018-11-13T02:32:07.659Z,0
2018-11-13T02:33:07.653Z,0
2018-11-13T02:34:07.131Z,0
2018-11-13T02:35:07.167Z,0
2018-11-13T02:36:07.670Z,0
2018-11-13T02:37:07.413Z,0
2018-11-13T02:38:06.893Z,0
2018-11-13T02:39:07.670Z,0
2018-11-13T02:40:07.399Z,0
2018-11-13T02:41:07.416Z,0
2018-11-13T02:42:07.378Z,0
2018-11-13T02:43:07.123Z,0
2018-11-13T02:44:06.866Z,0
2018-11-13T02:45:07.389Z,0
2018-11-13T02:46:07.401Z,0
2018-11-13T02:47:06.586Z,0
2018-11-13T02:48:07.633Z,0
2018-11-13T02:49:08.959Z,0
2018-11-13T02:50:07.619Z,0
2018-11-13T02:51:07.376Z,0
2018-11-13T02:52:07.084Z,0
2018-11-13T02:53:07.338Z,0
2018-11-13T02:54:07.596Z,0
2018-11-13T02:55:07.089Z,0
2018-11-13T02:56:07.080Z,0
2018-11-13T02:57:07.328Z,0
2018-11-13T02:58:06.598Z,0
2018-11-13T02:59:06.830Z,0
2018-11-13T03:00:07.352Z,0
2018-11-13T03:01:07.068Z,0
2018-11-13T03:02:06.798Z,0
2018-11-13T03:03:07.322Z,0
2018-11-13T03:04:07.580Z,0
2018-11-13T03:05:07.570Z,0
2018-11-13T03:06:07.308Z,0
2018-11-13T03:07:07.303Z,0
2018-11-13T03:08:07.305Z,0
2018-11-13T03:09:07.327Z,0
2018-11-13T03:10:07.305Z,0
2018-11-13T03:11:07.063Z,0
2018-11-13T03:12:06.785Z,0
2018-11-13T03:13:07.551Z,0
2018-11-13T03:14:07.678Z,0
2018-11-13T03:15:07.297Z,0
2018-11-13T03:16:07.557Z,0
2018-11-13T03:17:07.021Z,0
2018-11-13T03:18:07.287Z,0
2018-11-13T03:19:07.275Z,0
2018-11-13T03:20:07.028Z,0
2018-11-13T03:21:07.031Z,0
2018-11-13T03:22:07.543Z,0
2018-11-13T03:23:07.269Z,0
2018-11-13T03:24:07.286Z,0
2018-11-13T03:25:07.529Z,0
2018-11-13T03:26:07.285Z,0
2018-11-13T03:27:06.981Z,0
2018-11-13T03:28:07.284Z,0
2018-11-13T03:29:07.559Z,0
2018-11-13T03:30:07.238Z,0
2018-11-13T03:31:07.375Z,0
2018-11-13T03:32:07.545Z,0
2018-11-13T03:33:07.546Z,0
2018-11-13T03:34:07.244Z,0
2018-11-13T03:35:07.018Z,0
2018-11-13T03:36:07.231Z,0
2018-11-13T03:37:07.239Z,0
2018-11-13T03:38:06.700Z,0
2018-11-13T03:39:06.972Z,0
2018-11-13T03:40:07.228Z,0
2018-11-13T03:41:07.218Z,0
2018-11-13T03:42:07.474Z,0
2018-11-13T03:43:07.229Z,0
2018-11-13T03:44:07.215Z,0
2018-11-13T03:45:07.482Z,0
2018-11-13T03:46:07.234Z,0
2018-11-13T03:47:07.225Z,0
2018-11-13T03:48:06.693Z,0
2018-11-13T03:49:07.451Z,0
2018-11-13T03:50:07.222Z,0
2018-11-13T03:51:07.231Z,0
2018-11-13T03:52:06.947Z,0
2018-11-13T03:53:07.208Z,0
2018-11-13T03:54:07.175Z,0
2018-11-13T03:55:06.672Z,0
2018-11-13T03:56:06.918Z,0
2018-11-13T03:57:07.435Z,0
2018-11-13T03:58:07.484Z,0
2018-11-13T03:59:06.665Z,0
2018-11-13T04:00:06.942Z,0
2018-11-13T04:01:06.414Z,0
2018-11-13T04:02:07.426Z,0
2018-11-13T04:03:06.642Z,0
2018-11-13T04:04:07.171Z,0
2018-11-13T04:05:06.658Z,0
2018-11-13T04:06:06.925Z,0
2018-11-13T04:07:07.163Z,0
2018-11-13T04:08:07.171Z,0
2018-11-13T04:09:07.164Z,0
2018-11-13T04:10:06.640Z,0
2018-11-13T04:11:07.452Z,0
2018-11-13T04:12:07.424Z,0
2018-11-13T04:13:07.154Z,0
2018-11-13T04:14:07.214Z,0
2018-11-13T04:15:07.421Z,0
2018-11-13T04:16:06.637Z,0
2018-11-13T04:17:07.132Z,0
2018-11-13T04:18:06.880Z,0
2018-11-13T04:19:07.368Z,0
2018-11-13T04:20:06.866Z,0
2018-11-13T04:21:07.410Z,0
2018-11-13T04:22:07.124Z,0
2018-11-13T04:23:07.140Z,0
2018-11-13T04:24:06.866Z,0
2018-11-13T04:25:06.865Z,0
2018-11-13T04:26:07.121Z,0
2018-11-13T04:27:06.863Z,0
2018-11-13T04:28:06.605Z,0
2018-11-13T04:29:06.579Z,0
2018-11-13T04:30:07.104Z,0
2018-11-13T04:31:07.096Z,0
2018-11-13T04:32:07.128Z,0
2018-11-13T04:33:07.109Z,0
2018-11-13T04:34:06.588Z,0
2018-11-13T04:35:06.586Z,0
2018-11-13T04:36:07.084Z,0
2018-11-13T04:37:06.843Z,0
2018-11-13T04:38:06.561Z,0
2018-11-13T04:39:06.816Z,0
2018-11-13T04:40:06.834Z,0
2018-11-13T04:41:07.071Z,0
2018-11-13T04:42:07.081Z,0
2018-11-13T04:43:07.343Z,0
2018-11-13T04:44:07.095Z,0
2018-11-13T04:45:06.571Z,0
2018-11-13T04:46:06.545Z,0
2018-11-13T04:47:07.325Z,0
2018-11-13T04:48:06.785Z,0
2018-11-13T04:49:08.705Z,0
2018-11-13T04:50:06.776Z,0
2018-11-13T04:51:06.802Z,0
2018-11-13T04:52:06.781Z,0
2018-11-13T04:53:06.527Z,0
2018-11-13T04:54:07.033Z,0
2018-11-13T04:55:06.841Z,0
2018-11-13T04:56:07.048Z,0
2018-11-13T04:57:07.045Z,0
2018-11-13T04:58:07.023Z,0
2018-11-13T04:59:06.507Z,0
2018-11-13T05:00:07.038Z,0
2018-11-13T05:01:06.777Z,0
2018-11-13T05:02:06.502Z,0
2018-11-13T05:03:07.502Z,0
2018-11-13T05:04:06.806Z,0
2018-11-13T05:05:06.829Z,0
2018-11-13T05:06:06.763Z,0
2018-11-13T05:07:07.002Z,0
2018-11-13T05:08:07.044Z,0
2018-11-13T05:09:07.255Z,0
2018-11-13T05:10:07.267Z,0
2018-11-13T05:11:06.780Z,0
2018-11-13T05:12:06.480Z,0
2018-11-13T05:13:06.482Z,0
2018-11-13T05:14:06.754Z,0
2018-11-13T05:15:06.740Z,0
2018-11-13T05:16:06.973Z,0
2018-11-13T05:17:06.747Z,0
2018-11-13T05:18:06.742Z,0
2018-11-13T05:19:06.612Z,0
2018-11-13T05:20:06.720Z,0
2018-11-13T05:21:06.722Z,0
2018-11-13T05:22:06.460Z,0
2018-11-13T05:23:07.284Z,0
2018-11-13T05:24:06.709Z,0
2018-11-13T05:25:07.220Z,0
2018-11-13T05:26:06.973Z,0
2018-11-13T05:27:06.438Z,0
2018-11-13T05:28:06.983Z,0
2018-11-13T05:29:07.228Z,0
2018-11-13T05:30:06.972Z,0
2018-11-13T05:31:06.712Z,0
2018-11-13T05:32:06.695Z,0
2018-11-13T05:33:06.924Z,0
2018-11-13T05:34:07.006Z,0
2018-11-13T05:35:07.188Z,0
2018-11-13T05:36:07.200Z,0
2018-11-13T05:37:06.701Z,0
2018-11-13T05:38:06.951Z,0
2018-11-13T05:39:06.673Z,0
2018-11-13T05:40:06.419Z,0
2018-11-13T05:41:06.389Z,0
2018-11-13T05:42:06.921Z,0
2018-11-13T05:43:06.913Z,0
2018-11-13T05:44:07.181Z,0
2018-11-13T05:45:07.164Z,0
2018-11-13T05:46:06.908Z,0
2018-11-13T05:47:07.078Z,0
2018-11-13T05:48:06.628Z,0
2018-11-13T05:49:07.973Z,0
2018-11-13T05:50:06.642Z,0
2018-11-13T05:51:06.640Z,0
2018-11-13T05:52:06.632Z,0
2018-11-13T05:53:07.133Z,0
2018-11-13T05:54:06.973Z,0
2018-11-13T05:55:06.662Z,0
2018-11-13T05:56:06.895Z,0
2018-11-13T05:57:06.633Z,0
2018-11-13T05:58:06.892Z,0
2018-11-13T05:59:06.362Z,0
2018-11-13T06:00:06.790Z,0
2018-11-13T06:01:06.881Z,0
2018-11-13T06:02:06.607Z,0
2018-11-13T06:03:06.590Z,0
2018-11-13T06:04:06.862Z,0
2018-11-13T06:05:06.844Z,0
2018-11-13T06:06:06.572Z,0
2018-11-13T06:07:06.576Z,0
2018-11-13T06:08:06.329Z,0
2018-11-13T06:09:06.605Z,0
2018-11-13T06:10:07.102Z,0
2018-11-13T06:11:06.565Z,0
2018-11-13T06:12:06.604Z,0
2018-11-13T06:13:06.831Z,0
2018-11-13T06:14:07.344Z,0
2018-11-13T06:15:06.322Z,0
2018-11-13T06:16:06.555Z,0
2018-11-13T06:17:06.835Z,0
2018-11-13T06:18:06.994Z,0
2018-11-13T06:19:07.872Z,0
2018-11-13T06:20:06.558Z,0
2018-11-13T06:21:06.806Z,0
2018-11-13T06:22:06.333Z,0
2018-11-13T06:23:06.781Z,0
2018-11-13T06:24:06.534Z,0
2018-11-13T06:25:06.861Z,0
2018-11-13T06:26:06.806Z,0
2018-11-13T06:27:06.794Z,0
2018-11-13T06:28:06.267Z,0
2018-11-13T06:29:06.804Z,0
2018-11-13T06:30:07.574Z,0
2018-11-13T06:31:06.528Z,0
2018-11-13T06:32:06.770Z,0
2018-11-13T06:33:06.257Z,0
2018-11-13T06:34:06.504Z,0
2018-11-13T06:35:06.517Z,0
2018-11-13T06:36:06.497Z,0
2018-11-13T06:37:06.746Z,0
2018-11-13T06:38:06.488Z,0
2018-11-13T06:39:06.571Z,0
2018-11-13T06:40:06.749Z,0
2018-11-13T06:41:06.256Z,0
2018-11-13T06:42:06.243Z,0
2018-11-13T06:43:06.465Z,0
2018-11-13T06:44:06.747Z,0
2018-11-13T06:45:06.480Z,0
2018-11-13T06:46:06.476Z,0
2018-11-13T06:47:06.433Z,0
2018-11-13T06:48:06.705Z,0
2018-11-13T06:49:07.115Z,0
2018-11-13T06:50:10.114Z,0
2018-11-13T06:51:06.706Z,0
2018-11-13T06:52:06.704Z,0
2018-11-13T06:53:06.662Z,0
2018-11-13T06:54:06.407Z,0
2018-11-13T06:55:06.437Z,0
2018-11-13T06:56:06.169Z,0
2018-11-13T06:57:06.695Z,0
2018-11-13T06:58:06.477Z,0
2018-11-13T06:59:06.757Z,0
2018-11-13T07:00:06.949Z,0
2018-11-13T07:01:06.941Z,0
2018-11-13T07:02:06.413Z,0
2018-11-13T07:03:06.682Z,0
2018-11-13T07:04:06.433Z,0
2018-11-13T07:05:06.274Z,0
2018-11-13T07:06:06.207Z,0
2018-11-13T07:07:06.423Z,0
2018-11-13T07:08:05.894Z,0
2018-11-13T07:09:06.900Z,0
2018-11-13T07:10:06.924Z,0
2018-11-13T07:11:07.273Z,5
2018-11-13T07:12:06.392Z,5
2018-11-13T07:13:06.189Z,5
2018-11-13T07:14:06.121Z,5
2018-11-13T07:15:06.134Z,5
2018-11-13T07:16:06.666Z,5
2018-11-13T07:17:06.635Z,5
2018-11-13T07:18:06.661Z,10
2018-11-13T07:19:06.166Z,10
2018-11-13T07:20:06.618Z,10
2018-11-13T07:21:07.312Z,10
2018-11-13T07:22:06.109Z,10
2018-11-13T07:23:06.103Z,10
2018-11-13T07:24:06.869Z,15
2018-11-13T07:25:06.363Z,15
2018-11-13T07:26:06.882Z,15
2018-11-13T07:27:06.853Z,15
2018-11-13T07:28:06.461Z,15
2018-11-13T07:29:06.331Z,10
2018-11-13T07:30:06.601Z,10
2018-11-13T07:31:06.839Z,10
2018-11-13T07:32:05.822Z,10
2018-11-13T07:33:06.608Z,10
2018-11-13T07:34:06.355Z,10
2018-11-13T07:35:06.055Z,10
2018-11-13T07:36:06.587Z,10
2018-11-13T07:37:06.317Z,10
2018-11-13T07:38:06.301Z,10
2018-11-13T07:39:06.057Z,10
2018-11-13T07:40:06.299Z,10
2018-11-13T07:41:06.986Z,10
2018-11-13T07:42:06.040Z,10
2018-11-13T07:43:06.546Z,10
2018-11-13T07:44:06.026Z,10
2018-11-13T07:45:06.273Z,15
2018-11-13T07:46:06.534Z,15
2018-11-13T07:47:06.940Z,15
2018-11-13T07:48:07.204Z,15
2018-11-13T07:49:06.528Z,15
2018-11-13T07:50:06.532Z,15
2018-11-13T07:51:06.380Z,20
2018-11-13T07:52:06.261Z,20
2018-11-13T07:53:06.255Z,20
2018-11-13T07:54:07.119Z,25
2018-11-13T07:55:05.749Z,25
2018-11-13T07:56:06.254Z,30
2018-11-13T07:57:06.256Z,35
2018-11-13T07:58:05.981Z,40
2018-11-13T07:59:06.232Z,40
2018-11-13T08:00:06.004Z,40
2018-11-13T08:01:06.872Z,40
2018-11-13T08:02:05.963Z,40
2018-11-13T08:03:06.476Z,40
2018-11-13T08:04:06.743Z,40
2018-11-13T08:05:05.747Z,40
2018-11-13T08:06:06.831Z,35
2018-11-13T08:07:06.512Z,35
2018-11-13T08:08:05.970Z,30
2018-11-13T08:09:06.748Z,30
2018-11-13T08:10:06.435Z,30
2018-11-13T08:11:05.941Z,30
2018-11-13T08:12:06.438Z,35
2018-11-13T08:13:07.537Z,35
2018-11-13T08:14:06.196Z,40
2018-11-13T08:15:06.463Z,40
2018-11-13T08:16:06.447Z,45
2018-11-13T08:17:06.187Z,45
2018-11-13T08:18:06.195Z,40
2018-11-13T08:19:06.815Z,35
2018-11-13T08:20:06.193Z,35
2018-11-13T08:21:06.284Z,30
2018-11-13T08:22:06.790Z,30
2018-11-13T08:23:06.190Z,35
2018-11-13T08:24:05.921Z,30
2018-11-13T08:25:06.524Z,35
2018-11-13T08:26:05.918Z,35
2018-11-13T08:27:07.122Z,35
2018-11-13T08:28:06.895Z,40
2018-11-13T08:29:06.718Z,40
2018-11-13T08:30:06.412Z,45
2018-11-13T08:31:06.390Z,45
2018-11-13T08:32:06.433Z,50
2018-11-13T08:33:06.198Z,50
2018-11-13T08:34:06.128Z,50
2018-11-13T08:35:07.148Z,50
2018-11-13T08:36:06.409Z,50
2018-11-13T08:37:06.402Z,50
2018-11-13T08:38:06.121Z,50
2018-11-13T08:39:05.612Z,50
2018-11-13T08:40:05.868Z,50
2018-11-13T08:41:06.636Z,50
2018-11-13T08:42:06.628Z,45
2018-11-13T08:43:06.611Z,35
2018-11-13T08:44:06.660Z,35
2018-11-13T08:45:06.647Z,35
2018-11-13T08:46:06.103Z,35
2018-11-13T08:47:06.141Z,40
2018-11-13T08:48:06.097Z,40
2018-11-13T08:49:06.593Z,45
2018-11-13T08:50:05.893Z,50
2018-11-13T08:51:08.366Z,50
2018-11-13T08:52:06.130Z,50
2018-11-13T08:53:06.074Z,50
2018-11-13T08:54:06.602Z,50
2018-11-13T08:55:06.324Z,50
2018-11-13T08:56:06.066Z,50
2018-11-13T08:57:06.593Z,55
2018-11-13T08:58:06.053Z,55
2018-11-13T08:59:07.147Z,55
2018-11-13T09:00:06.337Z,55
2018-11-13T09:01:06.554Z,55
2018-11-13T09:02:06.319Z,55
2018-11-13T09:03:06.075Z,60
2018-11-13T09:04:06.321Z,60
2018-11-13T09:05:05.965Z,60
2018-11-13T09:06:06.293Z,55
2018-11-13T09:07:06.312Z,55
2018-11-13T09:08:06.287Z,55
2018-11-13T09:09:05.760Z,55
2018-11-13T09:10:05.781Z,55
2018-11-13T09:11:06.277Z,50
2018-11-13T09:12:07.132Z,50
2018-11-13T09:13:06.279Z,50
2018-11-13T09:14:06.001Z,55
2018-11-13T09:15:06.004Z,60
2018-11-13T09:16:06.025Z,65
2018-11-13T09:17:06.519Z,65
2018-11-13T09:18:06.491Z,65
2018-11-13T09:19:07.482Z,65
2018-11-13T09:20:05.725Z,65
2018-11-13T09:21:07.319Z,65
2018-11-13T09:22:06.251Z,65
2018-11-13T09:23:06.239Z,65
2018-11-13T09:24:05.711Z,65
2018-11-13T09:25:05.718Z,70
2018-11-13T09:26:05.711Z,70
2018-11-13T09:27:06.244Z,70
2018-11-13T09:28:06.275Z,70
2018-11-13T09:29:06.219Z,70
2018-11-13T09:30:06.956Z,70
2018-11-13T09:31:07.370Z,70
2018-11-13T09:32:05.431Z,65
2018-11-13T09:33:06.140Z,60
2018-11-13T09:34:06.516Z,60
2018-11-13T09:35:05.978Z,55
2018-11-13T09:36:06.033Z,55
2018-11-13T09:37:06.482Z,55
2018-11-13T09:38:06.189Z,55
2018-11-13T09:39:05.919Z,55
2018-11-13T09:40:05.931Z,55
2018-11-13T09:41:05.947Z,60
2018-11-13T09:42:05.926Z,60
2018-11-13T09:43:06.222Z,60
2018-11-13T09:44:05.937Z,65
2018-11-13T09:45:07.018Z,70
2018-11-13T09:46:06.718Z,75
2018-11-13T09:47:06.424Z,80
2018-11-13T09:48:06.421Z,80
2018-11-13T09:49:06.159Z,80
2018-11-13T09:50:05.905Z,80
2018-11-13T09:51:06.173Z,80
2018-11-13T09:52:06.479Z,80
2018-11-13T09:53:06.230Z,75
2018-11-13T09:54:05.903Z,70
2018-11-13T09:55:05.647Z,65
2018-11-13T09:56:05.640Z,65
2018-11-13T09:57:05.880Z,70
2018-11-13T09:58:05.635Z,60
2018-11-13T09:59:06.408Z,60
2018-11-13T10:00:06.233Z,60
2018-11-13T10:01:08.494Z,60
2018-11-13T10:02:10.585Z,65
2018-11-13T10:03:08.832Z,70
2018-11-13T10:04:11.401Z,75
2018-11-13T10:05:07.613Z,80
2018-11-13T10:06:05.726Z,85
2018-11-13T10:07:05.966Z,85
2018-11-13T10:08:05.597Z,85
2018-11-13T10:09:06.123Z,90
2018-11-13T10:10:06.278Z,90
2018-11-13T10:11:06.107Z,90
2018-11-13T10:12:05.826Z,95
2018-11-13T10:13:05.831Z,90
2018-11-13T10:14:06.099Z,85
2018-11-13T10:15:06.339Z,85
2018-11-13T10:16:05.847Z,85
2018-11-13T10:17:06.361Z,85
2018-11-13T10:18:06.654Z,85
2018-11-13T10:19:06.360Z,90
2018-11-13T10:20:05.596Z,90
2018-11-13T10:21:05.816Z,90
2018-11-13T10:22:07.646Z,90
2018-11-13T10:23:06.342Z,90
2018-11-13T10:24:05.551Z,90
2018-11-13T10:25:05.828Z,85
2018-11-13T10:26:05.867Z,85
2018-11-13T10:27:05.892Z,80
2018-11-13T10:28:06.153Z,75
2018-11-13T10:29:06.047Z,75
2018-11-13T10:30:06.680Z,75
2018-11-13T10:31:05.776Z,75
2018-11-13T10:32:06.052Z,75
2018-11-13T10:33:05.804Z,75
2018-11-13T10:34:06.311Z,75
2018-11-13T10:35:06.052Z,80
2018-11-13T10:36:05.780Z,80
2018-11-13T10:37:06.121Z,75
2018-11-13T10:38:06.282Z,75
2018-11-13T10:39:05.757Z,80
2018-11-13T10:40:06.668Z,80
2018-11-13T10:41:06.898Z,80
2018-11-13T10:42:06.022Z,80
2018-11-13T10:43:05.777Z,80
2018-11-13T10:44:05.743Z,80
2018-11-13T10:45:06.034Z,80
2018-11-13T10:46:05.766Z,85
2018-11-13T10:47:06.263Z,90
2018-11-13T10:48:05.754Z,95
2018-11-13T10:49:06.733Z,105
2018-11-13T10:50:05.910Z,95
2018-11-13T10:51:05.750Z,90
2018-11-13T10:52:05.785Z,85
2018-11-13T10:53:06.274Z,80
2018-11-13T10:54:05.739Z,75
2018-11-13T10:55:06.035Z,75
2018-11-13T10:56:05.471Z,75
2018-11-13T10:57:05.979Z,80
2018-11-13T10:58:05.466Z,75
2018-11-13T10:59:05.969Z,75
2018-11-13T11:00:05.973Z,75
2018-11-13T11:01:05.964Z,75
2018-11-13T11:02:05.957Z,80
2018-11-13T11:03:06.188Z,80
2018-11-13T11:04:05.447Z,85
2018-11-13T11:05:05.958Z,90
2018-11-13T11:06:05.965Z,95
2018-11-13T11:07:05.949Z,95
2018-11-13T11:08:05.944Z,95
2018-11-13T11:09:06.233Z,95
2018-11-13T11:10:06.192Z,95
2018-11-13T11:11:05.944Z,95
2018-11-13T11:12:05.441Z,95
2018-11-13T11:13:06.422Z,90
2018-11-13T11:14:07.814Z,95
2018-11-13T11:15:06.233Z,95
2018-11-13T11:16:06.264Z,100
2018-11-13T11:17:05.705Z,100
2018-11-13T11:18:05.854Z,100
2018-11-13T11:19:06.085Z,90
2018-11-13T11:20:05.681Z,85
2018-11-13T11:21:05.920Z,85
2018-11-13T11:22:06.239Z,85
2018-11-13T11:23:05.998Z,90
2018-11-13T11:24:05.930Z,85
2018-11-13T11:25:05.909Z,75
2018-11-13T11:26:05.920Z,70
2018-11-13T11:27:05.654Z,65
2018-11-13T11:28:06.590Z,65
2018-11-13T11:29:05.900Z,60
2018-11-13T11:30:05.902Z,55
2018-11-13T11:31:05.922Z,55
2018-11-13T11:32:05.397Z,55
2018-11-13T11:33:05.904Z,60
2018-11-13T11:34:05.898Z,70
2018-11-13T11:35:05.640Z,85
2018-11-13T11:36:06.160Z,95
2018-11-13T11:37:05.651Z,100
2018-11-13T11:38:05.386Z,100
2018-11-13T11:39:07.493Z,95
2018-11-13T11:40:05.686Z,90
2018-11-13T11:41:05.647Z,85
2018-11-13T11:42:05.645Z,80
2018-11-13T11:43:05.882Z,70
2018-11-13T11:44:05.609Z,70
2018-11-13T11:45:05.659Z,75
2018-11-13T11:46:05.866Z,75
2018-11-13T11:47:06.116Z,70
2018-11-13T11:48:05.606Z,65
2018-11-13T11:49:05.605Z,65
2018-11-13T11:50:05.366Z,70
2018-11-13T11:51:05.868Z,75
2018-11-13T11:52:06.110Z,85
2018-11-13T11:53:05.349Z,100
2018-11-13T11:54:06.528Z,105
2018-11-13T11:55:05.608Z,85
2018-11-13T11:56:05.855Z,70
2018-11-13T11:57:05.635Z,70
2018-11-13T11:58:05.644Z,75
2018-11-13T11:59:05.829Z,70
2018-11-13T12:00:05.583Z,70
2018-11-13T12:01:05.315Z,75
2018-11-13T12:02:06.250Z,85
2018-11-13T12:03:05.874Z,85
2018-11-13T12:04:05.561Z,90
2018-11-13T12:05:05.841Z,90
2018-11-13T12:06:05.583Z,95
2018-11-13T12:07:05.688Z,95
2018-11-13T12:08:05.824Z,90
2018-11-13T12:09:05.566Z,85
2018-11-13T12:10:05.583Z,85
2018-11-13T12:11:05.602Z,95
2018-11-13T12:12:05.923Z,105
2018-11-13T12:13:05.809Z,110
2018-11-13T12:14:05.828Z,105
2018-11-13T12:15:05.581Z,105
2018-11-13T12:16:05.578Z,100
2018-11-13T12:17:05.803Z,100
2018-11-13T12:18:05.287Z,95
2018-11-13T12:19:06.395Z,90
2018-11-13T12:20:06.074Z,85
2018-11-13T12:21:05.880Z,85
2018-11-13T12:22:06.076Z,85
2018-11-13T12:23:05.543Z,85
2018-11-13T12:24:05.792Z,95
2018-11-13T12:25:05.282Z,115
2018-11-13T12:26:06.092Z,125
2018-11-13T12:27:05.587Z,135
2018-11-13T12:28:05.535Z,140
2018-11-13T12:29:05.539Z,135
2018-11-13T12:30:05.893Z,130
2018-11-13T12:31:05.521Z,135
2018-11-13T12:32:05.261Z,125
2018-11-13T12:33:06.033Z,125
2018-11-13T12:34:05.824Z,125
2018-11-13T12:35:06.031Z,130
2018-11-13T12:36:05.521Z,135
2018-11-13T12:37:05.524Z,140
2018-11-13T12:38:05.745Z,145
2018-11-13T12:39:05.254Z,150
2018-11-13T12:40:05.031Z,150
2018-11-13T12:41:06.561Z,150
2018-11-13T12:42:05.802Z,145
2018-11-13T12:43:05.495Z,140
2018-11-13T12:44:05.487Z,125
2018-11-13T12:45:06.874Z,115
2018-11-13T12:46:05.525Z,110
2018-11-13T12:47:05.314Z,110
2018-11-13T12:48:05.236Z,115
2018-11-13T12:49:07.033Z,120
2018-11-13T12:50:06.074Z,130
2018-11-13T12:51:05.753Z,145
2018-11-13T12:52:07.024Z,170
2018-11-13T12:53:05.997Z,175
2018-11-13T12:54:07.679Z,165
2018-11-13T12:55:05.238Z,160
2018-11-13T12:56:07.899Z,145
2018-11-13T12:57:05.535Z,140
2018-11-13T12:58:06.939Z,120
2018-11-13T12:59:05.744Z,110
2018-11-13T13:00:05.490Z,105
2018-11-13T13:01:05.743Z,95
2018-11-13T13:02:07.517Z,100
2018-11-13T13:03:04.952Z,110
2018-11-13T13:04:05.479Z,95
2018-11-13T13:05:05.211Z,90
2018-11-13T13:06:05.724Z,95
2018-11-13T13:07:04.941Z,95
2018-11-13T13:08:05.457Z,100
2018-11-13T13:09:05.465Z,105
2018-11-13T13:10:05.482Z,105
2018-11-13T13:11:05.765Z,105
2018-11-13T13:12:05.224Z,105
2018-11-13T13:13:05.985Z,100
2018-11-13T13:14:05.693Z,100
2018-11-13T13:15:06.272Z,100
2018-11-13T13:16:05.767Z,100
2018-11-13T13:17:05.699Z,100
2018-11-13T13:18:05.746Z,100
2018-11-13T13:19:06.325Z,95
2018-11-13T13:20:05.439Z,90
2018-11-13T13:21:05.699Z,85
2018-11-13T13:22:05.737Z,80
2018-11-13T13:23:05.699Z,75
2018-11-13T13:24:05.707Z,75
2018-11-13T13:25:05.443Z,70
2018-11-13T13:26:06.046Z,70
2018-11-13T13:27:05.692Z,70
2018-11-13T13:28:05.978Z,70
2018-11-13T13:29:05.434Z,80
2018-11-13T13:30:05.948Z,85
2018-11-13T13:31:05.682Z,90
2018-11-13T13:32:06.107Z,95
2018-11-13T13:33:04.908Z,100
2018-11-13T13:34:05.401Z,100
2018-11-13T13:35:05.158Z,105
2018-11-13T13:36:04.898Z,105
2018-11-13T13:37:05.933Z,105
2018-11-13T13:38:05.414Z,105
2018-11-13T13:39:05.646Z,120
2018-11-13T13:40:05.425Z,105
2018-11-13T13:41:05.407Z,100
2018-11-13T13:42:05.659Z,95
2018-11-13T13:43:05.930Z,95
2018-11-13T13:44:05.408Z,95
2018-11-13T13:45:05.403Z,95
2018-11-13T13:46:05.929Z,90
2018-11-13T13:47:05.929Z,80
2018-11-13T13:48:04.877Z,85
2018-11-13T13:49:05.410Z,90
2018-11-13T13:50:05.137Z,90
2018-11-13T13:51:05.930Z,90
2018-11-13T13:52:06.037Z,85
2018-11-13T13:53:05.649Z,80
2018-11-13T13:54:06.626Z,75
2018-11-13T13:55:05.388Z,75
2018-11-13T13:56:05.690Z,75
2018-11-13T13:57:05.695Z,80
2018-11-13T13:58:05.694Z,80
2018-11-13T13:59:05.885Z,85
2018-11-13T14:00:07.035Z,90
2018-11-13T14:01:06.332Z,90
2018-11-13T14:02:05.385Z,85
2018-11-13T14:03:05.421Z,85
2018-11-13T14:04:05.624Z,90
2018-11-13T14:05:04.853Z,95
2018-11-13T14:06:06.320Z,100
2018-11-13T14:07:05.607Z,100
2018-11-13T14:08:05.981Z,100
2018-11-13T14:09:05.516Z,95
2018-11-13T14:10:04.842Z,90
2018-11-13T14:11:05.604Z,95
2018-11-13T14:12:05.618Z,90
2018-11-13T14:13:05.361Z,90
2018-11-13T14:14:05.646Z,95
2018-11-13T14:15:06.860Z,100
2018-11-13T14:16:05.104Z,95
2018-11-13T14:17:05.625Z,95
2018-11-13T14:18:05.195Z,90
2018-11-13T14:19:04.830Z,90
2018-11-13T14:20:05.352Z,90
2018-11-13T14:21:06.183Z,90
2018-11-13T14:22:05.348Z,85
2018-11-13T14:23:05.846Z,85
2018-11-13T14:24:05.337Z,80
2018-11-13T14:25:05.900Z,80
2018-11-13T14:26:05.348Z,80
2018-11-13T14:27:05.349Z,80
2018-11-13T14:28:05.589Z,75